sensor_id;sensor_type;location;lat;lon;timestamp;pressure;altitude;pressure_sealevel;temperature;humidity
70521;BME280;58442;52.716;23.560;2023-04-10T00:00:33;102194.15;;;7.29;73.63
70521;BME280;58442;52.716;23.560;2023-04-10T00:02:43;102187.63;;;7.30;73.66
70521;BME280;58442;52.716;23.560;2023-04-10T00:04:45;102196.55;;;7.31;73.66
70521;BME280;58442;52.716;23.560;2023-04-10T00:06:47;102194.95;;;7.30;73.64
70521;BME280;58442;52.716;23.560;2023-04-10T00:08:49;102195.74;;;7.30;73.70
70521;BME280;58442;52.716;23.560;2023-04-10T00:10:58;102197.36;;;7.31;73.78
70521;BME280;58442;52.716;23.560;2023-04-10T00:13:00;102196.26;;;7.32;73.79
70521;BME280;58442;52.716;23.560;2023-04-10T00:15:04;102195.97;;;7.34;73.76
70521;BME280;58442;52.716;23.560;2023-04-10T00:17:06;102193.79;;;7.36;73.78
70521;BME280;58442;52.716;23.560;2023-04-10T00:19:14;102194.60;;;7.36;73.77
70521;BME280;58442;52.716;23.560;2023-04-10T00:21:15;102197.01;;;7.38;73.80
70521;BME280;58442;52.716;23.560;2023-04-10T00:23:17;102197.81;;;7.38;73.86
70521;BME280;58442;52.716;23.560;2023-04-10T00:25:19;102199.41;;;7.39;73.87
70521;BME280;58442;52.716;23.560;2023-04-10T00:27:28;102203.73;;;7.40;73.94
70521;BME280;58442;52.716;23.560;2023-04-10T00:29:30;102198.05;;;7.42;73.98
70521;BME280;58442;52.716;23.560;2023-04-10T00:31:31;102190.45;;;7.44;74.01
70521;BME280;58442;52.716;23.560;2023-04-10T00:33:33;102195.26;;;7.47;73.99
70521;BME280;58442;52.716;23.560;2023-04-10T00:35:44;102190.95;;;7.46;74.03
70521;BME280;58442;52.716;23.560;2023-04-10T00:37:45;102197.70;;;7.49;74.10
70521;BME280;58442;52.716;23.560;2023-04-10T00:39:47;102194.70;;;7.50;74.17
70521;BME280;58442;52.716;23.560;2023-04-10T00:41:48;102196.30;;;7.51;74.20
70521;BME280;58442;52.716;23.560;2023-04-10T00:43:59;102198.41;;;7.54;74.20
70521;BME280;58442;52.716;23.560;2023-04-10T00:46:00;102192.44;;;7.57;74.22
70521;BME280;58442;52.716;23.560;2023-04-10T00:48:02;102190.24;;;7.59;74.19
70521;BME280;58442;52.716;23.560;2023-04-10T00:50:04;102192.38;;;7.62;74.16
70521;BME280;58442;52.716;23.560;2023-04-10T00:52:14;102189.38;;;7.64;74.14
70521;BME280;58442;52.716;23.560;2023-04-10T00:54:15;102194.49;;;7.65;74.13
70521;BME280;58442;52.716;23.560;2023-04-10T00:56:20;102189.59;;;7.67;74.13
70521;BME280;58442;52.716;23.560;2023-04-10T00:58:23;102192.83;;;7.70;74.12
70521;BME280;58442;52.716;23.560;2023-04-10T01:00:29;102189.82;;;7.71;74.11
70521;BME280;58442;52.716;23.560;2023-04-10T01:02:30;102188.42;;;7.74;74.13
70521;BME280;58442;52.716;23.560;2023-04-10T01:04:32;102194.87;;;7.78;74.11
70521;BME280;58442;52.716;23.560;2023-04-10T01:08:59;102192.67;;;7.80;74.08
70521;BME280;58442;52.716;23.560;2023-04-10T01:13:33;102194.81;;;7.83;74.05
70521;BME280;58442;52.716;23.560;2023-04-10T01:17:58;102190.20;;;7.83;74.04
70521;BME280;58442;52.716;23.560;2023-04-10T01:22:13;102185.89;;;7.82;74.01
70521;BME280;58442;52.716;23.560;2023-04-10T01:29:07;102186.95;;;7.81;74.17
70521;BME280;58442;52.716;23.560;2023-04-10T01:31:17;102184.55;;;7.80;74.31
70521;BME280;58442;52.716;23.560;2023-04-10T01:33:21;102186.95;;;7.81;74.35
70521;BME280;58442;52.716;23.560;2023-04-10T01:35:28;102182.88;;;7.84;74.31
70521;BME280;58442;52.716;23.560;2023-04-10T01:37:33;102189.09;;;7.84;74.30
70521;BME280;58442;52.716;23.560;2023-04-10T01:39:53;102183.17;;;7.82;74.42
70521;BME280;58442;52.716;23.560;2023-04-10T01:41:57;102182.35;;;7.82;74.61
70521;BME280;58442;52.716;23.560;2023-04-10T01:44:01;102179.63;;;7.82;74.70
70521;BME280;58442;52.716;23.560;2023-04-10T01:46:04;102175.56;;;7.84;74.68
70521;BME280;58442;52.716;23.560;2023-04-10T01:48:06;102186.89;;;7.86;74.68
70521;BME280;58442;52.716;23.560;2023-04-10T01:50:10;102181.48;;;7.86;74.76
70521;BME280;58442;52.716;23.560;2023-04-10T01:52:13;102183.89;;;7.88;74.79
70521;BME280;58442;52.716;23.560;2023-04-10T01:54:16;102186.59;;;7.88;74.83
70521;BME280;58442;52.716;23.560;2023-04-10T01:56:21;102187.13;;;7.90;74.88
70521;BME280;58442;52.716;23.560;2023-04-10T01:58:23;102182.77;;;7.89;74.90
70521;BME280;58442;52.716;23.560;2023-04-10T02:00:25;102184.11;;;7.91;74.90
70521;BME280;58442;52.716;23.560;2023-04-10T02:02:30;102187.92;;;7.90;74.86
70521;BME280;58442;52.716;23.560;2023-04-10T02:04:37;102194.15;;;7.91;74.93
70521;BME280;58442;52.716;23.560;2023-04-10T02:06:50;102186.82;;;7.91;74.98
70521;BME280;58442;52.716;23.560;2023-04-10T02:08:58;102184.92;;;7.92;74.98
70521;BME280;58442;52.716;23.560;2023-04-10T02:13:18;102189.73;;;7.95;74.97
70521;BME280;58442;52.716;23.560;2023-04-10T02:15:23;102185.13;;;7.95;74.97
70521;BME280;58442;52.716;23.560;2023-04-10T02:17:28;102187.55;;;7.97;74.97
70521;BME280;58442;52.716;23.560;2023-04-10T02:19:31;102184.86;;;7.97;74.92
70521;BME280;58442;52.716;23.560;2023-04-10T02:21:33;102186.45;;;7.98;74.89
70521;BME280;58442;52.716;23.560;2023-04-10T02:23:36;102189.97;;;7.99;74.84
70521;BME280;58442;52.716;23.560;2023-04-10T02:25:38;102186.16;;;8.00;74.83
70521;BME280;58442;52.716;23.560;2023-04-10T02:27:39;102186.95;;;8.00;74.79
70521;BME280;58442;52.716;23.560;2023-04-10T02:29:41;102189.97;;;7.99;74.74
70521;BME280;58442;52.716;23.560;2023-04-10T02:31:49;102192.17;;;7.97;74.74
70521;BME280;58442;52.716;23.560;2023-04-10T02:33:51;102191.64;;;7.94;74.84
70521;BME280;58442;52.716;23.560;2023-04-10T02:35:52;102191.94;;;7.93;74.89
70521;BME280;58442;52.716;23.560;2023-04-10T02:37:54;102196.55;;;7.92;74.89
70521;BME280;58442;52.716;23.560;2023-04-10T02:40:05;102188.43;;;7.92;74.87
70521;BME280;58442;52.716;23.560;2023-04-10T02:42:07;102191.14;;;7.92;74.87
70521;BME280;58442;52.716;23.560;2023-04-10T02:44:08;102190.33;;;7.92;74.87
70521;BME280;58442;52.716;23.560;2023-04-10T02:46:10;102187.62;;;7.92;74.85
70521;BME280;58442;52.716;23.560;2023-04-10T02:48:19;102186.02;;;7.91;74.81
70521;BME280;58442;52.716;23.560;2023-04-10T02:50:21;102197.95;;;7.90;74.82
70521;BME280;58442;52.716;23.560;2023-04-10T02:52:22;102189.02;;;7.89;74.77
70521;BME280;58442;52.716;23.560;2023-04-10T02:54:24;102190.09;;;7.88;74.76
70521;BME280;58442;52.716;23.560;2023-04-10T02:56:34;102198.88;;;7.80;74.89
70521;BME280;58442;52.716;23.560;2023-04-10T02:58:36;102194.63;;;7.74;75.13
70521;BME280;58442;52.716;23.560;2023-04-10T03:00:39;102200.64;;;7.71;75.32
70521;BME280;58442;52.716;23.560;2023-04-10T03:02:41;102194.73;;;7.69;75.41
70521;BME280;58442;52.716;23.560;2023-04-10T03:04:49;102200.41;;;7.67;75.56
70521;BME280;58442;52.716;23.560;2023-04-10T03:06:53;102196.10;;;7.66;75.64
70521;BME280;58442;52.716;23.560;2023-04-10T03:08:55;102190.38;;;7.68;75.66
70521;BME280;58442;52.716;23.560;2023-04-10T03:10:57;102199.84;;;7.71;75.56
70521;BME280;58442;52.716;23.560;2023-04-10T03:13:04;102197.64;;;7.73;75.41
70521;BME280;58442;52.716;23.560;2023-04-10T03:15:06;102202.75;;;7.74;75.32
70521;BME280;58442;52.716;23.560;2023-04-10T03:17:08;102201.95;;;7.74;75.25
70521;BME280;58442;52.716;23.560;2023-04-10T03:19:10;102193.83;;;7.74;75.20
70521;BME280;58442;52.716;23.560;2023-04-10T03:21:19;102200.85;;;7.75;75.20
70521;BME280;58442;52.716;23.560;2023-04-10T03:23:21;102203.55;;;7.75;75.22
70521;BME280;58442;52.716;23.560;2023-04-10T03:25:23;102195.43;;;7.75;75.22
70521;BME280;58442;52.716;23.560;2023-04-10T03:27:24;102192.73;;;7.75;75.21
70521;BME280;58442;52.716;23.560;2023-04-10T03:29:34;102195.43;;;7.75;75.23
70521;BME280;58442;52.716;23.560;2023-04-10T03:31:35;102193.83;;;7.74;75.26
70521;BME280;58442;52.716;23.560;2023-04-10T03:33:37;102202.48;;;7.76;75.28
70521;BME280;58442;52.716;23.560;2023-04-10T03:35:38;102198.67;;;7.77;75.23
70521;BME280;58442;52.716;23.560;2023-04-10T03:37:49;102192.16;;;7.78;75.21
70521;BME280;58442;52.716;23.560;2023-04-10T03:39:50;102192.16;;;7.78;75.24
70521;BME280;58442;52.716;23.560;2023-04-10T03:41:52;102199.18;;;7.79;75.22
70521;BME280;58442;52.716;23.560;2023-04-10T03:43:53;102194.57;;;7.79;75.16
70521;BME280;58442;52.716;23.560;2023-04-10T03:46:04;102196.48;;;7.79;75.17
70521;BME280;58442;52.716;23.560;2023-04-10T03:48:06;102201.59;;;7.80;75.22
70521;BME280;58442;52.716;23.560;2023-04-10T03:50:08;102187.26;;;7.80;75.19
70521;BME280;58442;52.716;23.560;2023-04-10T03:52:10;102197.51;;;7.83;75.14
70521;BME280;58442;52.716;23.560;2023-04-10T03:54:19;102197.51;;;7.83;75.09
70521;BME280;58442;52.716;23.560;2023-04-10T03:56:20;102195.61;;;7.83;75.05
70521;BME280;58442;52.716;23.560;2023-04-10T03:58:22;102200.22;;;7.83;75.02
70521;BME280;58442;52.716;23.560;2023-04-10T04:00:24;102193.70;;;7.84;74.99
70521;BME280;58442;52.716;23.560;2023-04-10T04:02:34;102196.41;;;7.84;74.96
70521;BME280;58442;52.716;23.560;2023-04-10T04:04:35;102199.12;;;7.84;74.92
70521;BME280;58442;52.716;23.560;2023-04-10T04:06:37;102202.63;;;7.84;74.89
70521;BME280;58442;52.716;23.560;2023-04-10T04:08:38;102196.41;;;7.84;74.86
70521;BME280;58442;52.716;23.560;2023-04-10T04:10:49;102197.51;;;7.83;74.88
70521;BME280;58442;52.716;23.560;2023-04-10T04:12:50;102204.84;;;7.82;74.83
70521;BME280;58442;52.716;23.560;2023-04-10T04:14:52;102203.99;;;7.82;74.86
70521;BME280;58442;52.716;23.560;2023-04-10T04:16:53;102205.90;;;7.81;74.83
70521;BME280;58442;52.716;23.560;2023-04-10T04:19:04;102202.92;;;7.83;74.83
70521;BME280;58442;52.716;23.560;2023-04-10T04:21:05;102207.53;;;7.82;74.83
70521;BME280;58442;52.716;23.560;2023-04-10T04:23:08;102204.53;;;7.84;74.79
70521;BME280;58442;52.716;23.560;2023-04-10T04:25:10;102206.13;;;7.85;74.81
70521;BME280;58442;52.716;23.560;2023-04-10T04:27:19;102203.44;;;7.85;74.81
70521;BME280;58442;52.716;23.560;2023-04-10T04:29:22;102212.05;;;7.87;74.85
70521;BME280;58442;52.716;23.560;2023-04-10T04:31:24;102213.16;;;7.86;74.87
70521;BME280;58442;52.716;23.560;2023-04-10T04:33:32;102214.45;;;7.88;74.95
70521;BME280;58442;52.716;23.560;2023-04-10T04:35:34;102218.50;;;7.91;74.99
70521;BME280;58442;52.716;23.560;2023-04-10T04:37:35;102216.30;;;7.93;75.00
70521;BME280;58442;52.716;23.560;2023-04-10T04:39:37;102223.02;;;7.95;75.01
70521;BME280;58442;52.716;23.560;2023-04-10T04:41:38;102229.77;;;7.98;75.02
70521;BME280;58442;52.716;23.560;2023-04-10T04:43:48;102227.57;;;8.00;75.03
70521;BME280;58442;52.716;23.560;2023-04-10T04:45:55;102225.89;;;8.04;75.06
70521;BME280;58442;52.716;23.560;2023-04-10T04:47:56;102231.52;;;8.08;75.03
70521;BME280;58442;52.716;23.560;2023-04-10T04:49:58;102232.85;;;8.10;75.17
70521;BME280;58442;52.716;23.560;2023-04-10T04:52:04;102238.97;;;8.16;74.54
70521;BME280;58442;52.716;23.560;2023-04-10T04:54:05;102241.11;;;8.19;75.06
70521;BME280;58442;52.716;23.560;2023-04-10T04:56:07;102237.80;;;8.22;75.05
70521;BME280;58442;52.716;23.560;2023-04-10T04:58:08;102236.42;;;8.25;74.89
70521;BME280;58442;52.716;23.560;2023-04-10T05:00:18;102250.46;;;8.27;75.12
70521;BME280;58442;52.716;23.560;2023-04-10T05:02:20;102249.86;;;8.30;75.21
70521;BME280;58442;52.716;23.560;2023-04-10T05:04:22;102252.80;;;8.33;75.20
70521;BME280;58442;52.716;23.560;2023-04-10T05:06:24;102247.63;;;8.37;75.19
70521;BME280;58442;52.716;23.560;2023-04-10T05:08:33;102250.56;;;8.40;75.24
70521;BME280;58442;52.716;23.560;2023-04-10T05:10:35;102251.86;;;8.43;75.30
70521;BME280;58442;52.716;23.560;2023-04-10T05:12:36;102259.11;;;8.47;75.26
70521;BME280;58442;52.716;23.560;2023-04-10T05:14:38;102256.63;;;8.51;75.26
70521;BME280;58442;52.716;23.560;2023-04-10T05:16:48;102255.72;;;8.56;75.29
70521;BME280;58442;52.716;23.560;2023-04-10T05:18:50;102261.07;;;8.61;75.29
70521;BME280;58442;52.716;23.560;2023-04-10T05:20:51;102255.27;;;8.67;75.23
70521;BME280;58442;52.716;23.560;2023-04-10T05:22:53;102257.10;;;8.72;75.21
70521;BME280;58442;52.716;23.560;2023-04-10T05:25:04;102259.42;;;8.79;75.16
70521;BME280;58442;52.716;23.560;2023-04-10T05:27:05;102259.32;;;8.84;75.16
70521;BME280;58442;52.716;23.560;2023-04-10T05:29:07;102259.54;;;8.87;75.17
70521;BME280;58442;52.716;23.560;2023-04-10T05:31:08;102257.55;;;8.93;75.15
70521;BME280;58442;52.716;23.560;2023-04-10T05:33:18;102257.16;;;8.99;75.11
70521;BME280;58442;52.716;23.560;2023-04-10T05:35:20;102265.18;;;9.04;75.13
70521;BME280;58442;52.716;23.560;2023-04-10T05:37:21;102258.25;;;9.12;75.12
70521;BME280;58442;52.716;23.560;2023-04-10T05:39:22;102258.98;;;9.18;75.03
70521;BME280;58442;52.716;23.560;2023-04-10T05:41:33;102253.15;;;9.24;74.98
70521;BME280;58442;52.716;23.560;2023-04-10T05:43:35;102253.87;;;9.30;75.02
70521;BME280;58442;52.716;23.560;2023-04-10T05:45:36;102254.57;;;9.36;75.01
70521;BME280;58442;52.716;23.560;2023-04-10T05:47:37;102246.34;;;9.41;75.03
70521;BME280;58442;52.716;23.560;2023-04-10T05:49:48;102258.39;;;9.48;75.08
70521;BME280;58442;52.716;23.560;2023-04-10T05:51:49;102254.17;;;9.56;75.07
70521;BME280;58442;52.716;23.560;2023-04-10T05:53:53;102252.64;;;9.64;75.04
70521;BME280;58442;52.716;23.560;2023-04-10T05:55:54;102253.84;;;9.71;75.01
70521;BME280;58442;52.716;23.560;2023-04-10T05:58:03;102251.20;;;9.80;74.94
70521;BME280;58442;52.716;23.560;2023-04-10T06:00:05;102252.38;;;9.87;74.93
70521;BME280;58442;52.716;23.560;2023-04-10T06:02:06;102244.63;;;9.95;74.90
70521;BME280;58442;52.716;23.560;2023-04-10T06:04:08;102245.84;;;10.02;74.86
70521;BME280;58442;52.716;23.560;2023-04-10T06:06:20;102252.46;;;10.10;74.84
70521;BME280;58442;52.716;23.560;2023-04-10T06:08:24;102249.32;;;10.17;74.87
70521;BME280;58442;52.716;23.560;2023-04-10T06:10:28;102251.64;;;10.23;74.83
70521;BME280;58442;52.716;23.560;2023-04-10T06:12:30;102251.21;;;10.30;74.86
70521;BME280;58442;52.716;23.560;2023-04-10T06:14:34;102248.35;;;10.35;74.84
70521;BME280;58442;52.716;23.560;2023-04-10T06:16:36;102244.60;;;10.45;74.81
70521;BME280;58442;52.716;23.560;2023-04-10T06:18:37;102253.92;;;10.52;74.76
70521;BME280;58442;52.716;23.560;2023-04-10T06:20:39;102248.55;;;10.61;74.67
70521;BME280;58442;52.716;23.560;2023-04-10T06:22:50;102243.96;;;10.70;74.63
70521;BME280;58442;52.716;23.560;2023-04-10T06:24:52;102250.27;;;10.79;74.55
70521;BME280;58442;52.716;23.560;2023-04-10T06:26:53;102249.52;;;10.87;74.49
70521;BME280;58442;52.716;23.560;2023-04-10T06:28:54;102251.47;;;10.95;74.39
70521;BME280;58442;52.716;23.560;2023-04-10T06:31:07;102253.42;;;11.04;74.31
70521;BME280;58442;52.716;23.560;2023-04-10T06:33:09;102253.77;;;11.11;74.26
70521;BME280;58442;52.716;23.560;2023-04-10T06:35:10;102251.41;;;11.18;74.14
70521;BME280;58442;52.716;23.560;2023-04-10T06:37:12;102248.42;;;11.28;74.00
70521;BME280;58442;52.716;23.560;2023-04-10T06:39:19;102255.80;;;11.36;73.83
70521;BME280;58442;52.716;23.560;2023-04-10T06:41:21;102249.58;;;11.44;73.73
70521;BME280;58442;52.716;23.560;2023-04-10T06:43:22;102248.32;;;11.50;73.55
70521;BME280;58442;52.716;23.560;2023-04-10T06:45:24;102251.38;;;11.58;73.42
70521;BME280;58442;52.716;23.560;2023-04-10T06:47:34;102244.67;;;11.64;73.40
70521;BME280;58442;52.716;23.560;2023-04-10T06:49:36;102258.62;;;11.71;73.37
70521;BME280;58442;52.716;23.560;2023-04-10T06:51:37;102254.63;;;11.77;73.29
70521;BME280;58442;52.716;23.560;2023-04-10T06:53:38;102255.17;;;11.88;73.18
70521;BME280;58442;52.716;23.560;2023-04-10T06:55:49;102259.67;;;12.01;72.95
70521;BME280;58442;52.716;23.560;2023-04-10T06:57:50;102259.82;;;12.13;72.72
70521;BME280;58442;52.716;23.560;2023-04-10T06:59:52;102262.39;;;12.27;72.46
70521;BME280;58442;52.716;23.560;2023-04-10T07:01:53;102256.47;;;12.42;72.22
70521;BME280;58442;52.716;23.560;2023-04-10T07:04:04;102253.23;;;12.57;71.99
70521;BME280;58442;52.716;23.560;2023-04-10T07:06:06;102258.83;;;12.70;71.71
70521;BME280;58442;52.716;23.560;2023-04-10T07:08:08;102257.67;;;12.79;71.47
70521;BME280;58442;52.716;23.560;2023-04-10T07:10:09;102257.32;;;12.90;71.28
70521;BME280;58442;52.716;23.560;2023-04-10T07:12:18;102251.19;;;13.01;71.02
70521;BME280;58442;52.716;23.560;2023-04-10T07:14:20;102248.12;;;13.11;70.73
70521;BME280;58442;52.716;23.560;2023-04-10T07:16:22;102251.30;;;13.22;70.46
70521;BME280;58442;52.716;23.560;2023-04-10T07:18:23;102255.12;;;13.30;70.21
70521;BME280;58442;52.716;23.560;2023-04-10T07:20:33;102248.80;;;13.38;69.94
70521;BME280;58442;52.716;23.560;2023-04-10T07:22:35;102255.04;;;13.47;69.65
70521;BME280;58442;52.716;23.560;2023-04-10T07:24:36;102257.07;;;13.59;69.29
70521;BME280;58442;52.716;23.560;2023-04-10T07:26:38;102254.28;;;13.67;69.06
70521;BME280;58442;52.716;23.560;2023-04-10T07:28:48;102247.50;;;13.74;68.88
70521;BME280;58442;52.716;23.560;2023-04-10T07:30:49;102247.89;;;13.84;68.50
70521;BME280;58442;52.716;23.560;2023-04-10T07:32:51;102252.76;;;14.00;68.05
70521;BME280;58442;52.716;23.560;2023-04-10T07:34:53;102244.78;;;14.15;67.71
70521;BME280;58442;52.716;23.560;2023-04-10T07:37:03;102245.41;;;14.33;67.32
70521;BME280;58442;52.716;23.560;2023-04-10T07:39:05;102249.02;;;14.46;66.82
70521;BME280;58442;52.716;23.560;2023-04-10T07:41:06;102245.34;;;14.63;66.53
70521;BME280;58442;52.716;23.560;2023-04-10T07:43:08;102244.69;;;14.78;66.31
70521;BME280;58442;52.716;23.560;2023-04-10T07:45:18;102248.01;;;14.96;66.11
70521;BME280;58442;52.716;23.560;2023-04-10T07:47:19;102241.09;;;15.11;65.85
70521;BME280;58442;52.716;23.560;2023-04-10T07:49:21;102247.48;;;15.27;65.52
70521;BME280;58442;52.716;23.560;2023-04-10T07:51:23;102242.13;;;15.30;65.52
70521;BME280;58442;52.716;23.560;2023-04-10T07:53:32;102244.18;;;15.33;65.50
70521;BME280;58442;52.716;23.560;2023-04-10T07:55:42;102246.47;;;15.31;65.40
70521;BME280;58442;52.716;23.560;2023-04-10T07:57:45;102254.68;;;15.31;65.37
70521;BME280;58442;52.716;23.560;2023-04-10T07:59:46;102240.64;;;15.33;65.20
70521;BME280;58442;52.716;23.560;2023-04-10T08:01:49;102243.96;;;15.39;65.03
70521;BME280;58442;52.716;23.560;2023-04-10T08:03:51;102243.38;;;15.45;64.83
70521;BME280;58442;52.716;23.560;2023-04-10T08:05:52;102240.95;;;15.44;64.90
70521;BME280;58442;52.716;23.560;2023-04-10T08:07:54;102242.33;;;15.50;64.84
70521;BME280;58442;52.716;23.560;2023-04-10T08:10:04;102238.69;;;15.70;64.48
70521;BME280;58442;52.716;23.560;2023-04-10T08:12:06;102234.67;;;15.92;63.89
70521;BME280;58442;52.716;23.560;2023-04-10T08:14:10;102236.40;;;16.12;63.52
70521;BME280;58442;52.716;23.560;2023-04-10T08:16:13;102231.77;;;16.29;63.12
70521;BME280;58442;52.716;23.560;2023-04-10T08:18:18;102235.27;;;16.41;62.87
70521;BME280;58442;52.716;23.560;2023-04-10T08:20:21;102230.05;;;16.52;62.51
70521;BME280;58442;52.716;23.560;2023-04-10T08:22:22;102234.59;;;16.60;62.28
70521;BME280;58442;52.716;23.560;2023-04-10T08:24:24;102228.95;;;16.69;61.99
70521;BME280;58442;52.716;23.560;2023-04-10T08:26:33;102230.03;;;16.80;61.81
70521;BME280;58442;52.716;23.560;2023-04-10T08:28:34;102227.22;;;16.92;61.54
70521;BME280;58442;52.716;23.560;2023-04-10T08:30:37;102227.83;;;17.02;61.33
70521;BME280;58442;52.716;23.560;2023-04-10T08:32:38;102224.20;;;17.13;61.10
70521;BME280;58442;52.716;23.560;2023-04-10T08:34:48;102217.88;;;17.29;60.75
70521;BME280;58442;52.716;23.560;2023-04-10T08:36:51;102222.05;;;17.38;60.26
70521;BME280;58442;52.716;23.560;2023-04-10T08:38:52;102212.80;;;17.46;59.97
70521;BME280;58442;52.716;23.560;2023-04-10T08:40:54;102222.38;;;17.53;59.89
70521;BME280;58442;52.716;23.560;2023-04-10T08:43:02;102222.60;;;17.63;59.74
70521;BME280;58442;52.716;23.560;2023-04-10T08:45:05;102224.90;;;17.77;59.37
70521;BME280;58442;52.716;23.560;2023-04-10T08:47:07;102214.13;;;17.88;58.92
70521;BME280;58442;52.716;23.560;2023-04-10T08:49:16;102204.87;;;17.96;58.55
70521;BME280;58442;52.716;23.560;2023-04-10T08:51:25;102210.14;;;18.04;58.46
70521;BME280;58442;52.716;23.560;2023-04-10T08:53:40;102216.67;;;18.16;58.46
70521;BME280;58442;52.716;23.560;2023-04-10T08:55:44;102206.59;;;18.23;58.27
70521;BME280;58442;52.716;23.560;2023-04-10T08:57:47;102204.77;;;18.31;58.14
70521;BME280;58442;52.716;23.560;2023-04-10T08:59:49;102210.41;;;18.38;58.04
70521;BME280;58442;52.716;23.560;2023-04-10T09:01:54;102195.19;;;18.44;57.89
70521;BME280;58442;52.716;23.560;2023-04-10T09:03:57;102207.07;;;18.48;57.53
70521;BME280;58442;52.716;23.560;2023-04-10T09:06:01;102207.20;;;18.55;57.43
70521;BME280;58442;52.716;23.560;2023-04-10T09:08:06;102202.62;;;18.63;57.21
70521;BME280;58442;52.716;23.560;2023-04-10T09:10:08;102198.80;;;18.68;57.06
70521;BME280;58442;52.716;23.560;2023-04-10T09:12:12;102196.89;;;18.72;56.56
70521;BME280;58442;52.716;23.560;2023-04-10T09:14:21;102194.21;;;18.75;56.48
70521;BME280;58442;52.716;23.560;2023-04-10T09:16:27;102199.84;;;18.82;56.00
70521;BME280;58442;52.716;23.560;2023-04-10T09:20:44;102191.73;;;18.93;55.40
70521;BME280;58442;52.716;23.560;2023-04-10T09:22:51;102193.46;;;19.01;54.94
70521;BME280;58442;52.716;23.560;2023-04-10T09:24:53;102197.05;;;19.05;54.49
70521;BME280;58442;52.716;23.560;2023-04-10T09:26:54;102192.78;;;19.08;54.26
70521;BME280;58442;52.716;23.560;2023-04-10T09:29:01;102185.34;;;19.12;54.19
70521;BME280;58442;52.716;23.560;2023-04-10T09:33:22;102192.62;;;19.24;53.54
70521;BME280;58442;52.716;23.560;2023-04-10T09:37:38;102181.73;;;19.34;53.15
70521;BME280;58442;52.716;23.560;2023-04-10T09:39:43;102177.93;;;19.43;53.06
70521;BME280;58442;52.716;23.560;2023-04-10T09:41:49;102177.23;;;19.49;52.61
70521;BME280;58442;52.716;23.560;2023-04-10T09:46:03;102169.91;;;19.60;52.04
70521;BME280;58442;52.716;23.560;2023-04-10T09:48:06;102167.15;;;19.60;52.00
70521;BME280;58442;52.716;23.560;2023-04-10T09:50:17;102169.60;;;19.65;51.82
70521;BME280;58442;52.716;23.560;2023-04-10T09:52:20;102170.45;;;19.70;51.33
70521;BME280;58442;52.716;23.560;2023-04-10T09:56:37;102161.02;;;19.74;50.90
70521;BME280;58442;52.716;23.560;2023-04-10T09:58:40;102163.05;;;19.77;50.74
70521;BME280;58442;52.716;23.560;2023-04-10T10:00:43;102163.48;;;19.83;50.53
70521;BME280;58442;52.716;23.560;2023-04-10T10:02:47;102163.24;;;19.95;50.34
70521;BME280;58442;52.716;23.560;2023-04-10T10:04:50;102158.24;;;20.04;50.18
70521;BME280;58442;52.716;23.560;2023-04-10T10:06:52;102156.76;;;20.14;50.00
70521;BME280;58442;52.716;23.560;2023-04-10T10:08:53;102151.63;;;20.12;49.92
70521;BME280;58442;52.716;23.560;2023-04-10T10:10:57;102152.16;;;20.25;49.54
70521;BME280;58442;52.716;23.560;2023-04-10T10:13:01;102149.88;;;20.38;49.27
70521;BME280;58442;52.716;23.560;2023-04-10T10:15:13;102143.32;;;20.49;49.06
70521;BME280;58442;52.716;23.560;2023-04-10T10:17:30;102145.41;;;20.63;48.74
70521;BME280;58442;52.716;23.560;2023-04-10T10:21:49;102132.14;;;20.80;47.92
70521;BME280;58442;52.716;23.560;2023-04-10T10:23:52;102133.77;;;20.88;47.66
70521;BME280;58442;52.716;23.560;2023-04-10T10:25:57;102125.93;;;20.97;47.51
70521;BME280;58442;52.716;23.560;2023-04-10T10:28:03;102129.14;;;21.02;47.15
70521;BME280;58442;52.716;23.560;2023-04-10T10:30:06;102115.75;;;21.12;46.81
70521;BME280;58442;52.716;23.560;2023-04-10T10:32:10;102117.37;;;21.16;46.59
70521;BME280;58442;52.716;23.560;2023-04-10T10:34:14;102120.93;;;21.20;46.26
70521;BME280;58442;52.716;23.560;2023-04-10T10:36:17;102123.34;;;21.25;45.78
70521;BME280;58442;52.716;23.560;2023-04-10T10:38:20;102111.88;;;21.27;45.36
70521;BME280;58442;52.716;23.560;2023-04-10T10:40:27;102113.53;;;21.32;45.25
70521;BME280;58442;52.716;23.560;2023-04-10T10:42:40;102110.37;;;21.29;45.16
70521;BME280;58442;52.716;23.560;2023-04-10T10:45:05;102110.62;;;21.10;45.29
70521;BME280;58442;52.716;23.560;2023-04-10T10:47:15;102114.01;;;20.86;45.32
70521;BME280;58442;52.716;23.560;2023-04-10T10:51:50;102104.48;;;20.32;45.84
70521;BME280;58442;52.716;23.560;2023-04-10T10:53:51;102103.91;;;20.12;45.94
70521;BME280;58442;52.716;23.560;2023-04-10T10:55:53;102106.88;;;19.96;46.15
70521;BME280;58442;52.716;23.560;2023-04-10T10:57:55;102098.88;;;19.84;46.37
70521;BME280;58442;52.716;23.560;2023-04-10T11:00:05;102099.77;;;19.95;46.11
70521;BME280;58442;52.716;23.560;2023-04-10T11:02:17;102087.68;;;20.07;45.77
70521;BME280;58442;52.716;23.560;2023-04-10T11:08:46;102089.98;;;20.01;45.52
70521;BME280;58442;52.716;23.560;2023-04-10T11:13:14;102081.07;;;19.78;45.93
70521;BME280;58442;52.716;23.560;2023-04-10T11:15:27;102082.88;;;19.63;46.23
70521;BME280;58442;52.716;23.560;2023-04-10T11:22:05;102071.33;;;19.24;46.87
70521;BME280;58442;52.716;23.560;2023-04-10T11:24:07;102071.55;;;19.11;47.11
70521;BME280;58442;52.716;23.560;2023-04-10T11:26:09;102085.55;;;18.99;47.40
70521;BME280;58442;52.716;23.560;2023-04-10T11:30:30;102080.79;;;18.70;48.16